createdAt,value
2023-04-22T00:00:35.757Z,7.7
2023-04-22T00:02:35.907Z,7.73
2023-04-22T00:06:03.141Z,7.78
2023-04-22T00:08:03.199Z,7.81
2023-04-22T00:10:03.196Z,7.82
2023-04-22T00:12:03.134Z,7.83
2023-04-22T00:14:03.224Z,7.73
2023-04-22T00:16:03.152Z,7.78
2023-04-22T00:18:03.242Z,7.76
2023-04-22T00:21:18.445Z,7.78
2023-04-22T00:23:18.418Z,7.76
2023-04-22T00:25:18.450Z,7.74
2023-04-22T00:27:18.406Z,7.76
2023-04-22T00:29:18.479Z,7.78
2023-04-22T00:31:18.443Z,7.77
2023-04-22T00:33:18.664Z,7.53
2023-04-22T00:36:44.473Z,7.36
2023-04-22T00:38:44.058Z,7.5
2023-04-22T00:40:44.117Z,7.5
2023-04-22T00:42:44.061Z,7.4
2023-04-22T00:44:44.094Z,7.3
2023-04-22T00:46:44.082Z,7.29
2023-04-22T00:48:44.063Z,7.27
2023-04-22T00:51:19.744Z,7.34
2023-04-22T00:53:19.664Z,7.35
2023-04-22T00:55:19.666Z,7.4
2023-04-22T00:57:19.671Z,7.3
2023-04-22T00:59:19.659Z,7.4
2023-04-22T01:01:19.773Z,7.39
2023-04-22T01:03:19.729Z,7.33
2023-04-22T01:06:55.139Z,7.42
2023-04-22T01:08:55.078Z,7.34
2023-04-22T01:10:55.073Z,7.32
2023-04-22T01:12:55.103Z,7.3
2023-04-22T01:14:55.075Z,7.26
2023-04-22T01:16:55.129Z,7.25
2023-04-22T01:18:55.094Z,7.17
2023-04-22T01:22:14.703Z,7.05
2023-04-22T01:24:14.610Z,6.98
2023-04-22T01:26:14.618Z,7.13
2023-04-22T01:28:14.591Z,7.18
2023-04-22T01:30:14.572Z,7.14
2023-04-22T01:32:14.634Z,7.1
2023-04-22T01:34:14.600Z,7.05
2023-04-22T01:36:53.284Z,6.98
2023-04-22T01:38:53.453Z,6.98
2023-04-22T01:40:53.259Z,7.01
2023-04-22T01:42:53.246Z,6.97
2023-04-22T01:44:53.276Z,6.94
2023-04-22T01:46:53.271Z,6.92
2023-04-22T01:48:53.261Z,6.87
2023-04-22T01:52:31.774Z,6.86
2023-04-22T01:54:31.839Z,6.88
2023-04-22T01:56:31.785Z,6.88
2023-04-22T01:58:32.037Z,6.86
2023-04-22T02:00:31.805Z,6.82
2023-04-22T02:02:31.810Z,6.8
2023-04-22T02:04:32.135Z,6.75
2023-04-22T02:07:34.178Z,6.65
2023-04-22T02:09:34.431Z,6.73
2023-04-22T02:11:34.197Z,6.71
2023-04-22T02:13:34.163Z,6.77
2023-04-22T02:15:34.211Z,6.66
2023-04-22T02:17:34.189Z,6.77
2023-04-22T02:19:34.227Z,6.69
2023-04-22T02:22:58.631Z,6.76
2023-04-22T02:24:58.723Z,6.76
2023-04-22T02:26:58.627Z,6.75
2023-04-22T02:28:58.601Z,6.73
2023-04-22T02:30:58.660Z,6.71
2023-04-22T02:32:58.761Z,6.73
2023-04-22T02:34:58.629Z,6.71
2023-04-22T02:37:23.048Z,6.69
2023-04-22T02:39:23.034Z,6.72
2023-04-22T02:41:23.071Z,6.72
2023-04-22T02:43:22.707Z,6.7
2023-04-22T02:45:22.675Z,6.7
2023-04-22T02:47:22.702Z,6.71
2023-04-22T02:49:22.672Z,6.7
2023-04-22T02:51:22.676Z,6.67
2023-04-22T02:52:44.811Z,6.64
2023-04-22T02:54:44.780Z,6.69
2023-04-22T02:56:44.768Z,6.66
2023-04-22T02:58:44.819Z,6.75
2023-04-22T03:00:44.820Z,6.77
2023-04-22T03:02:44.852Z,6.81
2023-04-22T03:04:44.739Z,6.71
2023-04-22T03:07:57.006Z,6.7
2023-04-22T03:09:56.992Z,6.79
2023-04-22T03:11:56.945Z,6.86
2023-04-22T03:13:57.136Z,6.88
2023-04-22T03:15:57.010Z,6.86
2023-04-22T03:17:56.949Z,6.86
2023-04-22T03:19:56.939Z,6.89
2023-04-22T03:23:23.118Z,6.89
2023-04-22T03:25:23.082Z,6.86
2023-04-22T03:27:23.059Z,6.87
2023-04-22T03:29:23.144Z,6.91
2023-04-22T03:31:23.070Z,6.78
2023-04-22T03:33:23.056Z,6.77
2023-04-22T03:35:23.079Z,6.93
2023-04-22T03:38:23.547Z,7.09
2023-04-22T03:40:23.584Z,7.09
2023-04-22T03:42:23.564Z,7.12
2023-04-22T03:44:23.606Z,7.14
2023-04-22T03:46:23.891Z,7.07
2023-04-22T03:48:23.543Z,7.16
2023-04-22T03:50:23.595Z,7.28
2023-04-22T03:53:48.494Z,7.27
2023-04-22T03:55:47.749Z,7.31
2023-04-22T03:57:47.685Z,7.26
2023-04-22T03:59:47.808Z,7.46
2023-04-22T04:01:47.733Z,7.62
2023-04-22T04:03:47.922Z,8.68
2023-04-22T04:05:47.727Z,9.56
2023-04-22T04:08:17.794Z,10.54
2023-04-22T04:10:17.829Z,10.8
2023-04-22T04:12:17.788Z,10.7
2023-04-22T04:14:17.813Z,10.34
2023-04-22T04:16:17.811Z,9.59
2023-04-22T04:18:17.813Z,8.99
2023-04-22T04:20:17.807Z,9.09
2023-04-22T04:22:17.899Z,9.19
2023-04-22T04:23:46.128Z,9
2023-04-22T04:25:46.148Z,8.72
2023-04-22T04:27:46.104Z,8.68
2023-04-22T04:29:46.092Z,8.31
2023-04-22T04:31:46.163Z,8
2023-04-22T04:33:46.117Z,8.17
2023-04-22T04:35:46.128Z,8.55
2023-04-22T04:39:15.462Z,8.35
2023-04-22T04:41:15.556Z,8.17
2023-04-22T04:43:15.420Z,8.14
2023-04-22T04:45:15.467Z,8.31
2023-04-22T04:47:15.473Z,8.35
2023-04-22T04:49:15.444Z,8.05
2023-04-22T04:51:15.809Z,8.04
2023-04-22T04:53:59.942Z,8.05
2023-04-22T04:55:59.956Z,8.13
2023-04-22T04:57:59.951Z,8.27
2023-04-22T04:59:59.929Z,8.09
2023-04-22T05:02:00.052Z,8.02
2023-04-22T05:04:00.011Z,8.45
2023-04-22T05:06:00.043Z,8.69
2023-04-22T05:09:43.415Z,9.31
2023-04-22T05:11:43.336Z,9.35
2023-04-22T05:13:43.341Z,9.43
2023-04-22T05:15:43.306Z,9.43
2023-04-22T05:17:43.463Z,8.87
2023-04-22T05:19:43.306Z,8.61
2023-04-22T05:21:43.367Z,8.75
2023-04-22T05:24:30.859Z,9.34
2023-04-22T05:26:30.894Z,9.63
2023-04-22T05:28:30.865Z,9.79
2023-04-22T05:30:30.879Z,9.84
2023-04-22T05:32:30.991Z,10.1
2023-04-22T05:34:30.858Z,10.69
2023-04-22T05:36:31.643Z,11.04
2023-04-22T05:39:44.447Z,11.84
2023-04-22T05:41:46.790Z,11.71
2023-04-22T05:43:44.427Z,11.67
2023-04-22T05:45:44.410Z,11.53
2023-04-22T05:47:44.449Z,11.36
2023-04-22T05:49:44.360Z,11.64
2023-04-22T05:51:44.438Z,11.53
2023-04-22T05:54:31.371Z,12.15
2023-04-22T05:56:31.431Z,12.24
2023-04-22T05:58:31.628Z,12.48
2023-04-22T06:00:31.769Z,12.9
2023-04-22T06:02:31.579Z,12.78
2023-04-22T06:04:33.072Z,12.95
2023-04-22T06:06:31.277Z,12.84
2023-04-22T06:08:31.303Z,12.28
2023-04-22T06:10:05.951Z,12.28
2023-04-22T06:12:05.871Z,12.19
2023-04-22T06:14:05.912Z,12.34
2023-04-22T06:16:05.960Z,12.41
2023-04-22T06:18:05.876Z,12.52
2023-04-22T06:20:05.856Z,12.86
2023-04-22T06:22:05.897Z,13.19
2023-04-22T06:25:03.070Z,13.38
2023-04-22T06:27:03.012Z,13.37
2023-04-22T06:29:03.041Z,14.27
2023-04-22T06:31:03.064Z,14.65
2023-04-22T06:33:03.025Z,15.18
2023-04-22T06:35:03.067Z,13.98
2023-04-22T06:37:03.008Z,14.04
2023-04-22T06:40:41.416Z,14.27
2023-04-22T06:42:41.426Z,13.8
2023-04-22T06:44:41.376Z,14.75
2023-04-22T06:46:41.459Z,14.86
2023-04-22T06:48:41.546Z,15.1
2023-04-22T06:50:41.609Z,14.73
2023-04-22T06:52:41.549Z,15.23
2023-04-22T06:55:50.821Z,15.15
2023-04-22T06:57:50.772Z,15.54
2023-04-22T06:59:50.786Z,15.29
2023-04-22T07:01:50.807Z,15.13
2023-04-22T07:03:50.876Z,15.49
2023-04-22T07:05:50.780Z,15.39
2023-04-22T07:07:52.826Z,15.63
2023-04-22T07:11:17.299Z,15.6
2023-04-22T07:13:17.359Z,15.69
2023-04-22T07:15:17.340Z,15.11
2023-04-22T07:17:17.286Z,16.19
2023-04-22T07:19:17.328Z,16.41
2023-04-22T07:21:17.272Z,17.01
2023-04-22T07:23:17.346Z,17.42
2023-04-22T07:25:47.219Z,17.92
2023-04-22T07:27:47.179Z,17.97
2023-04-22T07:29:47.245Z,17.81
2023-04-22T07:31:47.199Z,17.32
2023-04-22T07:33:47.235Z,16.73
2023-04-22T07:35:47.174Z,17.24
2023-04-22T07:37:47.224Z,17.4
2023-04-22T07:40:51.082Z,16.5
2023-04-22T07:42:51.108Z,16.79
2023-04-22T07:44:51.239Z,16.9
2023-04-22T07:46:51.074Z,16.92
2023-04-22T07:48:51.088Z,17.32
2023-04-22T07:50:51.141Z,17.25
2023-04-22T07:52:51.060Z,18.3
2023-04-22T07:54:51.072Z,18.31
2023-04-22T07:56:19.230Z,17.98
2023-04-22T07:58:19.220Z,17.63
2023-04-22T08:00:19.239Z,18.33
2023-04-22T08:02:19.289Z,19.36
2023-04-22T08:04:19.294Z,19.5
2023-04-22T08:06:19.252Z,19.55
2023-04-22T08:08:19.225Z,19.57
2023-04-22T08:11:15.107Z,18.47
2023-04-22T08:13:16.447Z,18.56
2023-04-22T08:15:15.145Z,18.65
2023-04-22T08:17:15.096Z,18.6
2023-04-22T08:19:15.138Z,18.57
2023-04-22T08:21:15.081Z,19.21
2023-04-22T08:23:15.152Z,19.05
2023-04-22T08:26:52.559Z,18.22
2023-04-22T08:28:52.523Z,19.26
2023-04-22T08:30:52.569Z,20.09
2023-04-22T08:32:52.581Z,20.42
2023-04-22T08:34:54.166Z,19.93
2023-04-22T08:36:52.518Z,20.44
2023-04-22T08:38:52.565Z,20.47
2023-04-22T08:41:49.562Z,20.98
2023-04-22T08:43:49.526Z,19.93
2023-04-22T08:45:49.564Z,20.42
2023-04-22T08:49:49.530Z,20.79
2023-04-22T08:51:49.561Z,21.12
2023-04-22T08:53:49.557Z,20.95
2023-04-22T08:57:22.429Z,20.3
2023-04-22T08:59:22.408Z,21.28
2023-04-22T09:01:22.439Z,19.98
2023-04-22T09:03:22.493Z,20.1
2023-04-22T09:05:22.376Z,20.79
2023-04-22T09:07:22.441Z,20.42
2023-04-22T09:09:22.394Z,21.19
2023-04-22T09:12:24.646Z,21.77
2023-04-22T09:14:24.634Z,22.14
2023-04-22T09:16:24.721Z,21.78
2023-04-22T09:18:24.631Z,21.67
2023-04-22T09:20:24.651Z,21.04
2023-04-22T09:22:24.618Z,21.18
2023-04-22T09:24:24.702Z,20.43
2023-04-22T09:27:17.664Z,21.16
2023-04-22T09:29:17.604Z,20.66
2023-04-22T09:31:17.629Z,21.75
2023-04-22T09:33:17.751Z,21.67
2023-04-22T09:35:17.628Z,22.38
2023-04-22T09:37:17.621Z,22.79
2023-04-22T09:39:17.685Z,23.23
2023-04-22T09:42:46.111Z,22.88
2023-04-22T09:44:46.133Z,22
2023-04-22T09:46:46.153Z,22.56
2023-04-22T09:48:46.092Z,21.8
2023-04-22T09:50:46.142Z,21.86
2023-04-22T09:52:46.135Z,22.76
2023-04-22T09:54:46.124Z,23.12
2023-04-22T09:57:13.034Z,21.97
2023-04-22T09:59:13.035Z,22.95
2023-04-22T10:01:12.993Z,20.64
2023-04-22T10:03:13.082Z,21.11
2023-04-22T10:05:13.010Z,22.35
2023-04-22T10:07:12.980Z,21.87
2023-04-22T10:09:13.028Z,22.1
2023-04-22T10:11:13.004Z,23.11
2023-04-22T10:13:00.439Z,23.32
2023-04-22T10:15:00.407Z,22.99
2023-04-22T10:17:00.419Z,21.22
2023-04-22T10:19:00.466Z,20.62
2023-04-22T10:21:00.404Z,20.8
2023-04-22T10:23:00.363Z,21.49
2023-04-22T10:25:00.358Z,20.92
2023-04-22T10:28:08.813Z,20.92
2023-04-22T10:30:08.830Z,21.33
2023-04-22T10:32:10.750Z,22
2023-04-22T10:34:08.802Z,21.72
2023-04-22T10:36:08.810Z,21.35
2023-04-22T10:38:08.792Z,21.5
2023-04-22T10:40:08.771Z,21.61
2023-04-22T10:43:15.982Z,23.09
2023-04-22T10:45:15.934Z,21.68
2023-04-22T10:47:15.931Z,20.45
2023-04-22T10:49:15.925Z,22.23
2023-04-22T10:51:15.938Z,22.19
2023-04-22T10:53:15.876Z,21.9
2023-04-22T10:55:15.876Z,21.74
2023-04-22T10:58:33.294Z,22.15
2023-04-22T11:00:42.110Z,20.27
2023-04-22T11:02:33.326Z,21.19
2023-04-22T11:04:33.383Z,21.29
2023-04-22T11:06:33.273Z,22.41
2023-04-22T11:08:33.323Z,22.4
2023-04-22T11:10:33.294Z,22.58
2023-04-22T11:14:00.730Z,22.99
2023-04-22T11:16:00.806Z,22.97
2023-04-22T11:18:00.764Z,22.82
2023-04-22T11:20:00.738Z,21.74
2023-04-22T11:22:00.778Z,21.48
2023-04-22T11:24:00.742Z,21.1
2023-04-22T11:26:00.782Z,21.09
2023-04-22T11:28:57.695Z,22.09
2023-04-22T11:30:57.605Z,22.29
2023-04-22T11:32:57.643Z,22.19
2023-04-22T11:34:57.664Z,22.15
2023-04-22T11:36:57.629Z,22.86
2023-04-22T11:38:57.651Z,23.63
2023-04-22T11:40:57.614Z,22.6
2023-04-22T11:43:35.598Z,22.85
2023-04-22T11:45:35.604Z,22.23
2023-04-22T11:47:35.622Z,22.03
2023-04-22T11:49:35.653Z,22.24
2023-04-22T11:51:35.571Z,20.4
2023-04-22T11:53:35.634Z,20.13
2023-04-22T11:55:35.587Z,20.54
2023-04-22T11:59:25.348Z,20.96
2023-04-22T12:01:25.450Z,20.57
2023-04-22T12:03:25.354Z,21.01
2023-04-22T12:05:25.346Z,21.68
2023-04-22T12:07:25.269Z,21.64
2023-04-22T12:09:25.280Z,21.21
2023-04-22T12:11:25.302Z,20.88
2023-04-22T12:14:26.601Z,20.65
2023-04-22T12:16:26.615Z,20.62
2023-04-22T12:18:26.624Z,20.47
2023-04-22T12:20:26.610Z,20.56
2023-04-22T12:22:26.640Z,20.51
2023-04-22T12:24:26.563Z,20.62
2023-04-22T12:26:27.475Z,20.74
2023-04-22T12:29:26.291Z,20.54
2023-04-22T12:31:26.291Z,20.47
2023-04-22T12:33:26.276Z,20.62
2023-04-22T12:35:26.320Z,20.85
2023-04-22T12:37:26.270Z,20.89
2023-04-22T12:39:26.330Z,20.87
2023-04-22T12:41:26.269Z,20.62
2023-04-22T12:44:12.731Z,20.77
2023-04-22T12:46:12.813Z,20.6
2023-04-22T12:48:12.708Z,19.27
2023-04-22T12:50:12.727Z,19.15
2023-04-22T12:52:12.774Z,18.53
2023-04-22T12:54:12.716Z,18.43
2023-04-22T12:56:12.740Z,17.75
2023-04-22T12:58:12.735Z,17.89
2023-04-22T12:59:45.340Z,17.65
2023-04-22T13:01:45.740Z,17.79
2023-04-22T13:03:45.227Z,17.91
2023-04-22T13:05:45.199Z,18.28
2023-04-22T13:07:46.888Z,17.76
2023-04-22T13:09:45.145Z,17.82
2023-04-22T13:11:45.218Z,18
2023-04-22T13:15:09.663Z,18.44
2023-04-22T13:17:09.783Z,18.25
2023-04-22T13:19:09.670Z,18.25
2023-04-22T13:21:09.926Z,17.64
2023-04-22T13:23:09.699Z,17.73
2023-04-22T13:25:09.772Z,17.84
2023-04-22T13:27:09.799Z,17.74
2023-04-22T13:30:03.355Z,17.8
2023-04-22T13:32:03.417Z,17.96
2023-04-22T13:34:03.370Z,18.58
2023-04-22T13:36:03.404Z,18.25
2023-04-22T13:38:03.335Z,18.4
2023-04-22T13:40:03.609Z,17.91
2023-04-22T13:42:03.353Z,17.42
2023-04-22T13:45:25.038Z,17.1
2023-04-22T13:47:25.100Z,17.53
2023-04-22T13:49:24.971Z,17.62
2023-04-22T13:51:25.026Z,17.48
2023-04-22T13:53:24.992Z,16.91
2023-04-22T13:55:25.029Z,16.61
2023-04-22T13:57:25.004Z,16.17
2023-04-22T14:00:53.531Z,16.55
2023-04-22T14:02:53.446Z,16.44
2023-04-22T14:04:53.359Z,16.65
2023-04-22T14:06:53.090Z,16.74
2023-04-22T14:08:52.954Z,16.95
2023-04-22T14:10:53.073Z,16.59
2023-04-22T14:12:52.949Z,16.58
2023-04-22T14:15:10.738Z,16.98
2023-04-22T14:17:10.949Z,16.78
2023-04-22T14:19:10.740Z,17.1
2023-04-22T14:21:10.652Z,16.8
2023-04-22T14:23:10.649Z,16.46
2023-04-22T14:25:11.292Z,15.84
2023-04-22T14:27:12.396Z,15.99
2023-04-22T14:29:10.637Z,16.25
2023-04-22T14:31:05.182Z,16.25
2023-04-22T14:33:05.307Z,16.51
2023-04-22T14:35:05.178Z,16.54
2023-04-22T14:37:05.245Z,16.32
2023-04-22T14:39:05.217Z,15.7
2023-04-22T14:41:05.143Z,16.39
2023-04-22T14:43:05.187Z,16.32
2023-04-22T14:46:12.730Z,16.37
2023-04-22T14:48:12.791Z,15.89
2023-04-22T14:50:12.721Z,15.51
2023-04-22T14:52:12.672Z,15.69
2023-04-22T14:54:12.722Z,15.8
2023-04-22T14:56:12.671Z,16.32
2023-04-22T14:58:12.664Z,16.21
2023-04-22T15:01:32.937Z,15.93
2023-04-22T15:03:33.067Z,16.18
2023-04-22T15:05:32.902Z,16.28
2023-04-22T15:07:32.942Z,15.87
2023-04-22T15:09:32.854Z,15.91
2023-04-22T15:11:32.845Z,15.76
2023-04-22T15:13:32.869Z,16.12
2023-04-22T15:16:21.823Z,16.65
2023-04-22T15:18:21.777Z,16.98
2023-04-22T15:20:22.006Z,16.62
2023-04-22T15:22:21.788Z,15.36
2023-04-22T15:24:21.810Z,15.9
2023-04-22T15:26:21.831Z,16.46
2023-04-22T15:28:21.838Z,16.67
2023-04-22T15:31:42.746Z,17.09
2023-04-22T15:33:42.590Z,17.2
2023-04-22T15:35:42.520Z,17.42
2023-04-22T15:37:42.546Z,17.26
2023-04-22T15:39:42.653Z,16.99
2023-04-22T15:41:42.712Z,16.29
2023-04-22T15:43:42.547Z,16.73
2023-04-22T15:46:53.557Z,16.68
2023-04-22T15:48:53.531Z,16.54
2023-04-22T15:50:53.622Z,16.22
2023-04-22T15:52:53.524Z,16.47
2023-04-22T15:54:53.504Z,16.2
2023-04-22T15:56:53.554Z,16.39
2023-04-22T15:58:53.495Z,16.21
2023-04-22T16:01:46.224Z,16.51
2023-04-22T16:03:44.759Z,16.52
2023-04-22T16:05:44.753Z,16.4
2023-04-22T16:07:44.587Z,15.77
2023-04-22T16:09:44.606Z,16.19
2023-04-22T16:11:44.547Z,15.87
2023-04-22T16:13:44.557Z,16.03
2023-04-22T16:16:31.668Z,15.27
2023-04-22T16:18:31.620Z,15.38
2023-04-22T16:20:31.562Z,15.65
2023-04-22T16:22:31.582Z,15.81
2023-04-22T16:24:31.650Z,16.01
2023-04-22T16:26:31.658Z,15.55
2023-04-22T16:28:31.657Z,15.86
2023-04-22T16:30:31.874Z,15.69
2023-04-22T16:31:37.285Z,15.86
2023-04-22T16:33:37.291Z,15.81
2023-04-22T16:35:37.261Z,15.69
2023-04-22T16:37:37.428Z,15.67
2023-04-22T16:39:37.433Z,15.7
2023-04-22T16:41:38.687Z,15.81
2023-04-22T16:43:38.564Z,15.75
2023-04-22T16:45:37.399Z,15.57
2023-04-22T16:46:49.839Z,15.58
2023-04-22T16:48:49.826Z,15.5
2023-04-22T16:50:49.884Z,15.45
2023-04-22T16:52:49.903Z,15.46
2023-04-22T16:54:49.846Z,15.27
2023-04-22T16:56:49.934Z,15.04
2023-04-22T16:58:49.905Z,15.12
2023-04-22T17:00:50.093Z,15.2
2023-04-22T17:02:23.515Z,14.88
2023-04-22T17:04:23.443Z,14.99
2023-04-22T17:06:23.653Z,14.79
2023-04-22T17:08:23.458Z,14.85
2023-04-22T17:10:23.347Z,14.84
2023-04-22T17:12:23.434Z,14.9
2023-04-22T17:14:23.356Z,14.88
2023-04-22T17:17:47.314Z,14.34
2023-04-22T17:19:47.171Z,14.34
2023-04-22T17:21:47.166Z,14.55
2023-04-22T17:23:47.279Z,14.48
2023-04-22T17:25:47.241Z,14.54
2023-04-22T17:27:47.268Z,14.32
2023-04-22T17:29:47.467Z,14.12
2023-04-22T17:32:53.176Z,14.29
2023-04-22T17:34:53.411Z,14.27
2023-04-22T17:36:53.153Z,14.27
2023-04-22T17:38:53.048Z,14.15
2023-04-22T17:40:53.236Z,14.09
2023-04-22T17:42:53.201Z,13.9
2023-04-22T17:44:53.335Z,13.7
2023-04-22T17:47:40.773Z,13.66
2023-04-22T17:49:40.956Z,13.54
2023-04-22T17:51:40.762Z,13.51
2023-04-22T17:53:40.723Z,13.45
2023-04-22T17:55:40.838Z,13.39
2023-04-22T17:57:40.870Z,13.25
2023-04-22T17:59:40.890Z,13.14
2023-04-22T18:02:56.998Z,13.23
2023-04-22T18:04:56.702Z,13.11
2023-04-22T18:06:56.731Z,12.95
2023-04-22T18:08:56.816Z,12.91
2023-04-22T18:10:56.861Z,12.78
2023-04-22T18:12:56.775Z,12.77
2023-04-22T18:14:56.677Z,12.89
2023-04-22T18:18:33.081Z,12.77
2023-04-22T18:20:33.021Z,12.62
2023-04-22T18:22:33.048Z,12.22
2023-04-22T18:24:33.067Z,12.31
2023-04-22T18:26:33.073Z,12.56
2023-04-22T18:28:33.859Z,12.46
2023-04-22T18:30:33.546Z,12.36
2023-04-22T18:33:40.935Z,12.27
2023-04-22T18:35:40.724Z,12.29
2023-04-22T18:37:40.694Z,12.35
2023-04-22T18:39:40.744Z,12.31
2023-04-22T18:41:40.671Z,12.18
2023-04-22T18:43:40.687Z,12
2023-04-22T18:45:40.732Z,12.09
2023-04-22T18:48:52.276Z,12.06
2023-04-22T18:50:52.410Z,11.96
2023-04-22T18:52:52.453Z,11.93
2023-04-22T18:54:52.407Z,11.74
2023-04-22T18:56:52.264Z,11.69
2023-04-22T18:58:52.373Z,11.63
2023-04-22T19:00:52.300Z,11.57
2023-04-22T19:04:13.500Z,11.51
2023-04-22T19:06:13.657Z,11.66
2023-04-22T19:08:13.900Z,11.61
2023-04-22T19:10:13.496Z,11.5
2023-04-22T19:12:13.472Z,11.53
2023-04-22T19:14:14.172Z,11.39
2023-04-22T19:16:13.560Z,11.42
2023-04-22T19:19:23.902Z,11.44
2023-04-22T19:21:23.867Z,11.4
2023-04-22T19:23:23.925Z,11.37
2023-04-22T19:25:23.892Z,11.31
2023-04-22T19:27:23.854Z,11.3
2023-04-22T19:29:23.933Z,11.28
2023-04-22T19:31:23.945Z,11.23
2023-04-22T19:34:14.459Z,11.15
2023-04-22T19:36:14.097Z,11.08
2023-04-22T19:38:14.190Z,11.12
2023-04-22T19:40:14.405Z,11.12
2023-04-22T19:42:14.139Z,11.04
2023-04-22T19:44:14.404Z,10.97
2023-04-22T19:46:14.255Z,10.75
2023-04-22T19:49:12.968Z,10.69
2023-04-22T19:51:13.076Z,10.66
2023-04-22T19:53:13.010Z,10.6
2023-04-22T19:55:12.770Z,10.59
2023-04-22T19:57:12.744Z,10.56
2023-04-22T19:59:12.740Z,10.34
2023-04-22T20:01:12.819Z,10.38
2023-04-22T20:04:33.036Z,10.35
2023-04-22T20:06:32.945Z,10.23
2023-04-22T20:08:32.944Z,10.21
2023-04-22T20:10:33.065Z,10.02
2023-04-22T20:12:32.983Z,10.04
2023-04-22T20:14:32.897Z,10.09
2023-04-22T20:16:32.975Z,10.02
2023-04-22T20:19:59.313Z,10.01
2023-04-22T20:21:59.285Z,9.91
2023-04-22T20:23:59.325Z,9.92
2023-04-22T20:25:59.309Z,9.84
2023-04-22T20:27:59.234Z,9.87
2023-04-22T20:29:59.269Z,9.85
2023-04-22T20:31:59.283Z,9.87
2023-04-22T20:35:02.201Z,9.75
2023-04-22T20:37:02.174Z,9.74
2023-04-22T20:39:02.222Z,9.79
2023-04-22T20:41:02.125Z,9.69
2023-04-22T20:43:02.164Z,9.64
2023-04-22T20:45:02.119Z,9.68
2023-04-22T20:47:02.114Z,9.62
2023-04-22T20:50:02.918Z,9.61
2023-04-22T20:52:03.158Z,9.59
2023-04-22T20:54:02.815Z,9.58
2023-04-22T20:56:02.831Z,9.46
2023-04-22T20:58:02.860Z,9.45
2023-04-22T21:00:02.837Z,9.43
2023-04-22T21:02:02.847Z,9.28
2023-04-22T21:04:48.240Z,9.36
2023-04-22T21:06:48.267Z,9.28
2023-04-22T21:08:48.214Z,9.3
2023-04-22T21:10:48.255Z,9.38
2023-04-22T21:12:48.212Z,9.28
2023-04-22T21:14:48.555Z,9.17
2023-04-22T21:16:48.218Z,9.19
2023-04-22T21:18:48.196Z,9.13
2023-04-22T21:20:02.004Z,9.14
2023-04-22T21:22:02.053Z,9.13
2023-04-22T21:24:02.036Z,9.13
2023-04-22T21:26:02.006Z,9.13
2023-04-22T21:28:02.013Z,9.07
2023-04-22T21:30:02.036Z,9.09
2023-04-22T21:32:09.052Z,9.06
2023-04-22T21:35:56.803Z,8.97
2023-04-22T21:37:56.695Z,8.93
2023-04-22T21:39:56.712Z,8.88
2023-04-22T21:41:56.722Z,8.92
2023-04-22T21:43:56.661Z,8.87
2023-04-22T21:45:56.676Z,8.88
2023-04-22T21:47:56.754Z,8.9
2023-04-22T21:51:10.962Z,8.78
2023-04-22T21:53:10.870Z,8.76
2023-04-22T21:55:10.953Z,8.7
2023-04-22T21:57:10.943Z,8.7
2023-04-22T21:59:10.946Z,8.6
2023-04-22T22:01:10.942Z,8.63
2023-04-22T22:03:11.036Z,8.63
2023-04-22T22:05:51.973Z,8.63
2023-04-22T22:07:51.966Z,8.6
2023-04-22T22:09:52.030Z,8.58
2023-04-22T22:11:51.994Z,8.55
2023-04-22T22:13:52.033Z,8.53
2023-04-22T22:15:53.611Z,8.51
2023-04-22T22:17:52.020Z,8.41
2023-04-22T22:21:01.528Z,8.42
2023-04-22T22:23:01.559Z,8.39
2023-04-22T22:25:01.590Z,8.4
2023-04-22T22:27:01.529Z,8.41
2023-04-22T22:29:01.515Z,8.41
2023-04-22T22:31:01.547Z,8.4
2023-04-22T22:33:01.537Z,8.34
2023-04-22T22:36:04.116Z,8.26
2023-04-22T22:38:04.123Z,8.22
2023-04-22T22:40:04.123Z,8.24
2023-04-22T22:42:04.112Z,8.18
2023-04-22T22:44:04.132Z,8.18
2023-04-22T22:46:04.215Z,8.15
2023-04-22T22:48:04.160Z,8.15
2023-04-22T22:51:01.396Z,8.15
2023-04-22T22:53:01.351Z,8.14
2023-04-22T22:55:01.355Z,8.07
2023-04-22T22:57:01.408Z,8.06
2023-04-22T22:59:01.362Z,8.07
2023-04-22T23:01:01.358Z,8.07
2023-04-22T23:03:01.602Z,8.03
2023-04-22T23:05:01.408Z,7.93
2023-04-22T23:07:00.023Z,7.87
2023-04-22T23:09:00.022Z,7.88
2023-04-22T23:11:00.089Z,7.92
2023-04-22T23:13:00.000Z,7.97
2023-04-22T23:15:00.031Z,7.86
2023-04-22T23:17:00.113Z,7.84
2023-04-22T23:19:00.013Z,7.84
2023-04-22T23:21:43.746Z,7.84
2023-04-22T23:23:43.717Z,7.86
2023-04-22T23:25:43.703Z,7.8
2023-04-22T23:27:43.707Z,7.74
2023-04-22T23:29:43.715Z,7.77
2023-04-22T23:31:43.825Z,7.75
2023-04-22T23:33:43.841Z,7.73
2023-04-22T23:36:27.397Z,7.64
2023-04-22T23:38:27.446Z,7.65
2023-04-22T23:40:27.376Z,7.61
2023-04-22T23:42:27.475Z,7.66
2023-04-22T23:44:27.430Z,7.62
2023-04-22T23:46:27.441Z,7.57
2023-04-22T23:48:27.375Z,7.54
2023-04-22T23:50:27.398Z,7.54
2023-04-22T23:51:53.965Z,7.55
2023-04-22T23:53:54.159Z,7.47
2023-04-22T23:55:54.021Z,7.51
2023-04-22T23:57:54.041Z,7.5
2023-04-22T23:59:54.092Z,7.49
